首页
METAR-TAF:

METAR-TAF

机场 :

伯灵顿, 艾奥瓦州, 美国

纬度: 40-46-22N, 经度: 091-07-31W, 海拔: 212米

当前天气观测

该预报发布于40分钟前的14:53 UTC
静风
温度 21°C
湿度 73%
气压 1015 hPa
能見度: 16.1公里
阴天层高于1700英尺

METAR: KBRL 181453Z AUTO 00000KT 10SM OVC017 21/16 A2996 RMK AO2 SLP143 T02110156 53000

时间: 10:33 (15:33 UTC)

预报

该预报发布于13分钟前的15:20 UTC
预报有效从18日的 15点(UTC)到 19日的 12点(UTC)
风速3节,风向多变
能見度: 10公里
阴天层高于1700英尺
从 18日的 1900点(UTC)
风速5节,风向东南
能見度: 10公里
多云层高于3000英尺
从 19日的 0000点(UTC)
风速2节,风向多变
能見度: 10公里
多云层高于5000英尺

TAF: KBRL 181520Z 1815/1912 VRB03KT P6SM OVC017 FM181900 13005KT P6SM BKN030 FM190000 VRB02KT P6SM BKN050

超过4000个机场的气象观测和天气预报(METAR&TAF报告)。

可查询的气象台以黄色和红色小点在地图上表示。

将鼠标移到小点上方,可查看气象台名称。

然后点击查看天气观测和预报。

如需切换地图:点击带黑十字的绿色按钮放大地图;点击带横线的绿色按钮缩小地图;或者点击绿色箭头查看邻近地区的地图。


METAR-TAF: